Vivorata, Argentina
Current Conditions -  °F | °C
As of 11:00 AM on Thursday 30 Oct 2014 (Local Time) from SAZM Reporting Station
Clear Clear  
Wind Chill: 18°   Ceiling: Unl
Heat Index: 18°   Visibility: 6mi
Dew Point:   Wind: 14mph
Humidity: 45%   Direction: 290°WNW
Pressure: 29.77"   Gusts: NA
Location:  37.67°S, 57.67°W
Report Text: SAZM 301400Z 29012KT CAVOK 18/06 Q1008
Loading
Personal Weather Stations






























Interactive Weather Map
Tropical Storm Tracking
New forecast layout! Learn more

10-Day Weather Forecast

Advertisements
Track Severe Weather on mobile